createdAt,value
2022-08-21T00:00:27.196Z,0.00
2022-08-21T00:01:27.218Z,0.00
2022-08-21T00:02:27.202Z,0.00
2022-08-21T00:03:27.170Z,0.00
2022-08-21T00:04:30.060Z,0.00
2022-08-21T00:05:27.136Z,0.00
2022-08-21T00:06:27.127Z,0.00
2022-08-21T00:07:27.197Z,0.00
2022-08-21T00:08:27.101Z,0.00
2022-08-21T00:09:27.089Z,0.00
2022-08-21T00:10:27.080Z,0.00
2022-08-21T00:11:27.070Z,0.00
2022-08-21T00:12:27.079Z,0.00
2022-08-21T00:13:27.080Z,0.00
2022-08-21T00:14:27.009Z,0.00
2022-08-21T00:15:28.037Z,0.00
2022-08-21T00:16:27.007Z,0.00
2022-08-21T00:17:26.980Z,0.00
2022-08-21T00:18:26.969Z,0.00
2022-08-21T00:19:26.991Z,0.00
2022-08-21T00:20:26.951Z,0.00
2022-08-21T00:21:26.940Z,0.00
2022-08-21T00:22:26.934Z,0.00
2022-08-21T00:23:26.913Z,0.00
2022-08-21T00:24:26.916Z,0.00
2022-08-21T00:25:26.931Z,0.00
2022-08-21T00:26:26.902Z,0.00
2022-08-21T00:27:26.867Z,0.00
2022-08-21T00:28:26.853Z,0.00
2022-08-21T00:29:26.862Z,0.00
2022-08-21T00:30:26.847Z,0.00
2022-08-21T00:31:26.851Z,0.00
2022-08-21T00:32:26.836Z,0.00
2022-08-21T00:33:26.888Z,0.00
2022-08-21T00:34:26.791Z,0.00
2022-08-21T00:35:26.794Z,0.00
2022-08-21T00:36:26.788Z,0.00
2022-08-21T00:37:26.816Z,0.00
2022-08-21T00:38:26.756Z,0.00
2022-08-21T00:39:26.740Z,0.00
2022-08-21T00:40:26.755Z,0.00
2022-08-21T00:41:37.870Z,0.00
2022-08-21T00:42:27.718Z,0.00
2022-08-21T00:43:26.699Z,0.00
2022-08-21T00:44:26.677Z,0.00
2022-08-21T00:45:26.661Z,0.00
2022-08-21T00:46:28.471Z,0.00
2022-08-21T00:47:26.658Z,0.00
2022-08-21T00:48:26.694Z,0.00
2022-08-21T00:49:26.714Z,0.00
2022-08-21T00:50:26.653Z,0.00
2022-08-21T00:51:26.615Z,0.00
2022-08-21T00:52:26.602Z,0.00
2022-08-21T00:53:26.639Z,0.00
2022-08-21T00:54:26.600Z,0.00
2022-08-21T00:55:26.549Z,0.00
2022-08-21T00:56:26.540Z,0.00
2022-08-21T00:57:26.545Z,0.00
2022-08-21T00:58:26.540Z,0.00
2022-08-21T00:59:26.531Z,0.00
2022-08-21T01:00:26.531Z,0.00
2022-08-21T01:01:26.516Z,0.00
2022-08-21T01:02:26.486Z,0.00
2022-08-21T01:03:26.472Z,0.00
2022-08-21T01:04:26.481Z,0.00
2022-08-21T01:05:26.491Z,0.00
2022-08-21T01:06:26.413Z,0.00
2022-08-21T01:07:27.646Z,0.00
2022-08-21T01:08:26.428Z,0.00
2022-08-21T01:09:26.509Z,0.00
2022-08-21T01:10:26.411Z,0.00
2022-08-21T01:11:26.372Z,0.00
2022-08-21T01:12:26.354Z,0.00
2022-08-21T01:13:26.399Z,0.00
2022-08-21T01:14:26.327Z,0.00
2022-08-21T01:15:26.314Z,0.00
2022-08-21T01:16:26.354Z,0.00
2022-08-21T01:17:26.328Z,0.00
2022-08-21T01:18:26.637Z,0.00
2022-08-21T01:19:26.379Z,0.00
2022-08-21T01:20:32.502Z,0.00
2022-08-21T01:21:28.320Z,0.00
2022-08-21T01:22:26.236Z,0.00
2022-08-21T01:23:26.326Z,0.00
2022-08-21T01:24:26.215Z,0.00
2022-08-21T01:25:26.215Z,0.00
2022-08-21T01:26:33.818Z,0.00
2022-08-21T01:27:27.220Z,0.00
2022-08-21T01:28:26.203Z,0.00
2022-08-21T01:29:26.159Z,0.00
2022-08-21T01:30:26.147Z,0.00
2022-08-21T01:31:26.307Z,0.00
2022-08-21T01:32:26.127Z,0.00
2022-08-21T01:33:26.158Z,0.00
2022-08-21T01:34:26.141Z,0.00
2022-08-21T01:35:26.169Z,0.00
2022-08-21T01:36:26.210Z,0.00
2022-08-21T01:37:26.174Z,0.00
2022-08-21T01:38:26.149Z,0.00
2022-08-21T01:39:26.143Z,0.00
2022-08-21T01:40:26.041Z,0.00
2022-08-21T01:41:26.027Z,0.00
2022-08-21T01:42:26.013Z,0.00
2022-08-21T01:43:30.687Z,0.00
2022-08-21T01:44:27.040Z,0.00
2022-08-21T01:45:25.960Z,0.00
2022-08-21T01:46:25.960Z,0.00
2022-08-21T01:47:25.940Z,0.00
2022-08-21T01:48:25.943Z,0.00
2022-08-21T01:49:25.951Z,0.00
2022-08-21T01:50:26.114Z,0.00
2022-08-21T01:51:25.901Z,0.00
2022-08-21T01:52:25.884Z,0.00
2022-08-21T01:53:33.066Z,0.00
2022-08-21T01:54:27.885Z,0.00
2022-08-21T01:55:25.920Z,0.00
2022-08-21T01:56:25.971Z,0.00
2022-08-21T01:57:26.012Z,0.00
2022-08-21T01:58:25.832Z,0.00
2022-08-21T01:59:25.823Z,0.00
2022-08-21T02:00:25.831Z,0.00
2022-08-21T02:01:25.839Z,0.00
2022-08-21T02:02:25.835Z,0.00
2022-08-21T02:03:34.951Z,0.00
2022-08-21T02:04:26.804Z,0.00
2022-08-21T02:05:25.754Z,0.00
2022-08-21T02:06:25.745Z,0.00
2022-08-21T02:07:25.722Z,0.00
2022-08-21T02:08:25.830Z,0.00
2022-08-21T02:09:25.723Z,0.00
2022-08-21T02:10:25.686Z,0.00
2022-08-21T02:11:25.681Z,0.00
2022-08-21T02:12:25.647Z,0.00
2022-08-21T02:13:25.930Z,0.00
2022-08-21T02:14:31.950Z,0.00
2022-08-21T02:15:26.630Z,0.00
2022-08-21T02:16:25.659Z,0.00
2022-08-21T02:17:25.589Z,0.00
2022-08-21T02:18:25.593Z,0.00
2022-08-21T02:19:25.641Z,0.00
2022-08-21T02:20:25.587Z,0.00
2022-08-21T02:21:26.514Z,0.00
2022-08-21T02:22:25.559Z,0.00
2022-08-21T02:23:26.990Z,0.00
2022-08-21T02:24:25.610Z,0.00
2022-08-21T02:25:25.542Z,0.00
2022-08-21T02:26:25.499Z,0.00
2022-08-21T02:27:26.510Z,0.00
2022-08-21T02:28:25.632Z,0.00
2022-08-21T02:29:25.519Z,0.00
2022-08-21T02:30:25.500Z,0.00
2022-08-21T02:31:26.376Z,0.00
2022-08-21T02:32:25.433Z,0.00
2022-08-21T02:33:25.430Z,0.00
2022-08-21T02:34:29.362Z,0.00
2022-08-21T02:35:25.453Z,0.00
2022-08-21T02:36:25.412Z,0.00
2022-08-21T02:37:25.370Z,0.00
2022-08-21T02:38:25.419Z,0.00
2022-08-21T02:39:27.278Z,0.00
2022-08-21T02:40:25.384Z,0.00
2022-08-21T02:41:25.363Z,0.00
2022-08-21T02:42:25.386Z,0.00
2022-08-21T02:43:25.350Z,0.00
2022-08-21T02:44:30.078Z,0.00
2022-08-21T02:45:26.285Z,0.00
2022-08-21T02:46:25.325Z,0.00
2022-08-21T02:47:25.251Z,0.00
2022-08-21T02:48:25.294Z,0.00
2022-08-21T02:49:25.245Z,0.00
2022-08-21T02:50:27.270Z,0.00
2022-08-21T02:51:25.236Z,0.00
2022-08-21T02:52:25.189Z,0.00
2022-08-21T02:53:25.217Z,0.00
2022-08-21T02:54:25.195Z,0.00
2022-08-21T02:55:25.182Z,0.00
2022-08-21T02:56:25.167Z,0.00
2022-08-21T02:57:26.137Z,0.00
2022-08-21T02:58:25.151Z,0.00
2022-08-21T02:59:25.238Z,0.00
2022-08-21T03:00:25.136Z,0.00
2022-08-21T03:01:25.197Z,0.00
2022-08-21T03:02:26.684Z,0.00
2022-08-21T03:03:25.085Z,0.00
2022-08-21T03:04:25.122Z,0.00
2022-08-21T03:05:25.088Z,0.00
2022-08-21T03:06:25.092Z,0.00
2022-08-21T03:07:25.053Z,0.00
2022-08-21T03:08:27.610Z,0.00
2022-08-21T03:09:25.098Z,0.00
2022-08-21T03:10:25.022Z,0.00
2022-08-21T03:11:25.012Z,0.00
2022-08-21T03:12:24.980Z,0.00
2022-08-21T03:13:24.990Z,0.00
2022-08-21T03:14:24.972Z,0.00
2022-08-21T03:15:25.050Z,0.00
2022-08-21T03:16:24.961Z,0.00
2022-08-21T03:17:29.876Z,0.00
2022-08-21T03:18:25.966Z,0.00
2022-08-21T03:19:24.911Z,0.00
2022-08-21T03:20:24.881Z,0.00
2022-08-21T03:21:24.881Z,0.00
2022-08-21T03:22:24.914Z,0.00
2022-08-21T03:23:24.855Z,0.00
2022-08-21T03:24:24.860Z,0.00
2022-08-21T03:25:39.700Z,0.00
2022-08-21T03:26:27.386Z,0.00
2022-08-21T03:27:24.823Z,0.00
2022-08-21T03:28:24.818Z,0.00
2022-08-21T03:29:24.889Z,0.00
2022-08-21T03:30:24.774Z,0.00
2022-08-21T03:31:24.751Z,0.00
2022-08-21T03:32:24.773Z,0.00
2022-08-21T03:33:24.760Z,0.00
2022-08-21T03:34:24.793Z,0.00
2022-08-21T03:35:24.735Z,0.00
2022-08-21T03:36:24.704Z,0.00
2022-08-21T03:37:24.796Z,0.00
2022-08-21T03:38:26.679Z,0.00
2022-08-21T03:39:24.695Z,0.00
2022-08-21T03:40:24.658Z,0.00
2022-08-21T03:41:24.629Z,0.00
2022-08-21T03:42:24.617Z,0.00
2022-08-21T03:43:24.648Z,0.00
2022-08-21T03:44:24.640Z,0.00
2022-08-21T03:45:24.640Z,0.00
2022-08-21T03:46:24.637Z,0.00
2022-08-21T03:47:24.566Z,0.00
2022-08-21T03:48:24.584Z,0.00
2022-08-21T03:49:24.540Z,0.00
2022-08-21T03:50:24.550Z,0.00
2022-08-21T03:51:24.567Z,0.00
2022-08-21T03:52:24.529Z,0.00
2022-08-21T03:53:24.505Z,0.00
2022-08-21T03:54:24.501Z,0.00
2022-08-21T03:55:24.499Z,0.00
2022-08-21T03:56:24.479Z,0.00
2022-08-21T03:57:24.459Z,0.00
2022-08-21T03:58:24.463Z,0.00
2022-08-21T03:59:24.465Z,0.00
2022-08-21T04:00:24.448Z,0.00
2022-08-21T04:01:24.474Z,0.00
2022-08-21T04:02:24.483Z,0.00
2022-08-21T04:03:24.381Z,0.00
2022-08-21T04:04:24.410Z,0.00
2022-08-21T04:05:24.420Z,0.00
2022-08-21T04:06:24.381Z,0.00
2022-08-21T04:07:24.350Z,0.00
2022-08-21T04:08:24.362Z,0.00
2022-08-21T04:09:24.320Z,0.00
2022-08-21T04:10:24.302Z,0.00
2022-08-21T04:11:24.298Z,0.00
2022-08-21T04:12:24.303Z,0.00
2022-08-21T04:13:24.281Z,0.00
2022-08-21T04:14:24.306Z,0.00
2022-08-21T04:15:24.242Z,0.00
2022-08-21T04:16:24.249Z,0.00
2022-08-21T04:17:24.261Z,0.00
2022-08-21T04:18:24.241Z,0.00
2022-08-21T04:19:24.626Z,0.00
2022-08-21T04:20:24.189Z,0.00
2022-08-21T04:21:24.258Z,0.00
2022-08-21T04:22:24.178Z,0.00
2022-08-21T04:23:24.713Z,0.00
2022-08-21T04:24:24.153Z,0.00
2022-08-21T04:25:24.192Z,5.62
2022-08-21T04:26:24.114Z,5.62
2022-08-21T04:27:24.145Z,5.62
2022-08-21T04:28:28.778Z,5.62
2022-08-21T04:29:25.097Z,5.62
2022-08-21T04:30:28.497Z,5.62
2022-08-21T04:31:24.104Z,5.62
2022-08-21T04:32:24.048Z,5.62
2022-08-21T04:33:24.047Z,5.62
2022-08-21T04:34:24.042Z,5.62
2022-08-21T04:35:24.013Z,11.25
2022-08-21T04:36:25.229Z,11.25
2022-08-21T04:37:24.046Z,11.25
2022-08-21T04:38:24.005Z,11.25
2022-08-21T04:39:25.224Z,11.25
2022-08-21T04:40:25.047Z,11.25
2022-08-21T04:41:25.098Z,16.88
2022-08-21T04:42:23.953Z,16.88
2022-08-21T04:43:24.030Z,16.88
2022-08-21T04:44:23.909Z,16.88
2022-08-21T04:45:23.900Z,22.50
2022-08-21T04:46:23.890Z,22.50
2022-08-21T04:47:23.904Z,22.50
2022-08-21T04:48:24.920Z,22.50
2022-08-21T04:49:23.861Z,22.50
2022-08-21T04:50:23.868Z,28.12
2022-08-21T04:51:23.838Z,28.12
2022-08-21T04:52:23.840Z,28.12
2022-08-21T04:53:23.821Z,28.12
2022-08-21T04:54:23.835Z,28.12
2022-08-21T04:55:23.811Z,28.12
2022-08-21T04:56:23.831Z,33.75
2022-08-21T04:57:23.781Z,33.75
2022-08-21T04:58:24.963Z,33.75
2022-08-21T04:59:23.850Z,33.75
2022-08-21T05:00:23.798Z,33.75
2022-08-21T05:01:23.812Z,33.75
2022-08-21T05:02:23.834Z,39.38
2022-08-21T05:03:23.703Z,39.38
2022-08-21T05:04:23.685Z,39.38
2022-08-21T05:05:23.692Z,39.38
2022-08-21T05:06:23.698Z,39.38
2022-08-21T05:07:41.946Z,45.00
2022-08-21T05:08:24.845Z,45.00
2022-08-21T05:09:23.639Z,45.00
2022-08-21T05:10:23.622Z,45.00
2022-08-21T05:11:23.593Z,45.00
2022-08-21T05:12:23.792Z,50.62
2022-08-21T05:13:23.567Z,50.62
2022-08-21T05:14:23.562Z,50.62
2022-08-21T05:15:23.563Z,50.62
2022-08-21T05:16:37.303Z,50.62
2022-08-21T05:17:24.808Z,50.62
2022-08-21T05:18:23.527Z,56.25
2022-08-21T05:19:23.505Z,56.25
2022-08-21T05:20:23.484Z,56.25
2022-08-21T05:21:23.496Z,56.25
2022-08-21T05:22:23.495Z,56.25
2022-08-21T05:23:23.472Z,61.88
2022-08-21T05:24:23.471Z,61.88
2022-08-21T05:25:23.798Z,61.88
2022-08-21T05:26:23.502Z,61.88
2022-08-21T05:27:23.428Z,61.88
2022-08-21T05:28:23.561Z,67.50
2022-08-21T05:29:23.410Z,67.50
2022-08-21T05:30:23.396Z,67.50
2022-08-21T05:31:23.379Z,67.50
2022-08-21T05:32:23.370Z,73.12
2022-08-21T05:33:23.350Z,73.12
2022-08-21T05:34:23.358Z,73.12
2022-08-21T05:35:23.309Z,78.75
2022-08-21T05:36:23.345Z,78.75
2022-08-21T05:37:23.298Z,78.75
2022-08-21T05:38:23.276Z,84.38
2022-08-21T05:39:23.300Z,84.38
2022-08-21T05:40:23.509Z,84.38
2022-08-21T05:41:23.293Z,90.00
2022-08-21T05:42:23.285Z,90.00
2022-08-21T05:43:23.250Z,90.00
2022-08-21T05:44:23.269Z,95.62
2022-08-21T05:45:41.351Z,95.62
2022-08-21T05:46:25.048Z,95.62
2022-08-21T05:47:23.210Z,95.62
2022-08-21T05:48:23.244Z,101.25
2022-08-21T05:49:23.201Z,101.25
2022-08-21T05:50:23.186Z,101.25
2022-08-21T05:51:24.293Z,101.25
2022-08-21T05:52:23.190Z,106.88
2022-08-21T05:53:23.183Z,106.88
2022-08-21T05:54:23.151Z,106.88
2022-08-21T05:55:23.162Z,106.88
2022-08-21T05:56:23.157Z,112.50
2022-08-21T05:57:23.217Z,106.88
2022-08-21T05:58:23.055Z,112.50
2022-08-21T05:59:23.134Z,112.50
2022-08-21T06:00:23.138Z,118.12
2022-08-21T06:01:23.160Z,118.12
2022-08-21T06:02:23.194Z,118.12
2022-08-21T06:03:23.465Z,123.75
2022-08-21T06:04:23.155Z,123.75
2022-08-21T06:05:36.425Z,123.75
2022-08-21T06:06:23.983Z,129.38
2022-08-21T06:07:22.975Z,129.38
2022-08-21T06:08:23.105Z,129.38
2022-08-21T06:09:22.946Z,135.00
2022-08-21T06:10:22.972Z,135.00
2022-08-21T06:11:25.787Z,140.62
2022-08-21T06:12:23.915Z,140.62
2022-08-21T06:13:22.956Z,140.62
2022-08-21T06:14:22.906Z,140.62
2022-08-21T06:15:22.887Z,146.25
2022-08-21T06:16:22.870Z,146.25
2022-08-21T06:17:22.898Z,146.25
2022-08-21T06:18:22.933Z,146.25
2022-08-21T06:19:22.888Z,146.25
2022-08-21T06:20:22.841Z,151.88
2022-08-21T06:21:22.826Z,151.88
2022-08-21T06:22:22.912Z,151.88
2022-08-21T06:23:22.931Z,151.88
2022-08-21T06:24:23.866Z,151.88
2022-08-21T06:25:22.759Z,157.50
2022-08-21T06:26:22.839Z,157.50
2022-08-21T06:27:26.541Z,157.50
2022-08-21T06:28:22.722Z,157.50
2022-08-21T06:29:22.754Z,157.50
2022-08-21T06:30:22.713Z,163.12
2022-08-21T06:31:22.699Z,163.12
2022-08-21T06:32:22.691Z,163.12
2022-08-21T06:33:22.642Z,163.12
2022-08-21T06:34:22.681Z,168.75
2022-08-21T06:35:22.721Z,168.75
2022-08-21T06:36:22.658Z,168.75
2022-08-21T06:37:22.632Z,168.75
2022-08-21T06:38:22.715Z,168.75
2022-08-21T06:39:25.448Z,168.75
2022-08-21T06:40:23.692Z,168.75
2022-08-21T06:41:24.157Z,168.75
2022-08-21T06:42:23.584Z,168.75
2022-08-21T06:43:22.633Z,168.75
2022-08-21T06:44:23.574Z,174.38
2022-08-21T06:45:22.529Z,174.38
2022-08-21T06:46:22.527Z,174.38
2022-08-21T06:47:22.574Z,174.38
2022-08-21T06:48:22.495Z,174.38
2022-08-21T06:49:22.486Z,180.00
2022-08-21T06:50:23.220Z,180.00
2022-08-21T06:51:22.447Z,180.00
2022-08-21T06:52:22.431Z,180.00
2022-08-21T06:53:22.460Z,180.00
2022-08-21T06:54:22.446Z,185.62
2022-08-21T06:55:24.476Z,185.62
2022-08-21T06:56:22.386Z,185.62
2022-08-21T06:57:22.358Z,185.62
2022-08-21T06:58:22.367Z,185.62
2022-08-21T06:59:23.763Z,191.25
2022-08-21T07:00:22.389Z,191.25
2022-08-21T07:01:22.344Z,191.25
2022-08-21T07:02:22.316Z,191.25
2022-08-21T07:03:22.300Z,191.25
2022-08-21T07:04:22.280Z,191.25
2022-08-21T07:05:22.289Z,191.25
2022-08-21T07:06:22.300Z,196.88
2022-08-21T07:07:22.241Z,196.88
2022-08-21T07:08:22.231Z,196.88
2022-08-21T07:09:24.703Z,196.88
2022-08-21T07:10:22.938Z,196.88
2022-08-21T07:11:22.197Z,202.50
2022-08-21T07:12:22.211Z,202.50
2022-08-21T07:13:22.175Z,202.50
2022-08-21T07:14:22.185Z,202.50
2022-08-21T07:15:22.142Z,202.50
2022-08-21T07:16:22.134Z,202.50
2022-08-21T07:17:22.137Z,202.50
2022-08-21T07:18:22.172Z,202.50
2022-08-21T07:19:22.102Z,202.50
2022-08-21T07:20:22.103Z,202.50
2022-08-21T07:21:25.632Z,208.12
2022-08-21T07:22:22.085Z,208.12
2022-08-21T07:23:22.064Z,208.12
2022-08-21T07:24:22.038Z,208.12
2022-08-21T07:25:22.025Z,208.12
2022-08-21T07:26:22.025Z,208.12
2022-08-21T07:27:22.026Z,208.12
2022-08-21T07:28:22.054Z,208.12
2022-08-21T07:29:22.003Z,213.75
2022-08-21T07:30:21.976Z,213.75
2022-08-21T07:31:21.968Z,213.75
2022-08-21T07:32:21.947Z,213.75
2022-08-21T07:33:22.646Z,213.75
2022-08-21T07:34:21.983Z,213.75
2022-08-21T07:35:21.935Z,213.75
2022-08-21T07:36:21.907Z,213.75
2022-08-21T07:37:21.908Z,219.38
2022-08-21T07:38:21.878Z,219.38
2022-08-21T07:39:21.886Z,219.38
2022-08-21T07:40:21.985Z,219.38
2022-08-21T07:41:21.857Z,219.38
2022-08-21T07:42:21.860Z,219.38
2022-08-21T07:43:21.829Z,219.38
2022-08-21T07:44:21.840Z,219.38
2022-08-21T07:45:21.799Z,219.38
2022-08-21T07:46:21.831Z,219.38
2022-08-21T07:47:41.767Z,219.38
2022-08-21T07:48:22.778Z,219.38
2022-08-21T07:49:21.751Z,219.38
2022-08-21T07:50:21.840Z,225.00
2022-08-21T07:51:21.762Z,225.00
2022-08-21T07:52:21.722Z,225.00
2022-08-21T07:53:21.778Z,225.00
2022-08-21T07:54:29.712Z,225.00
2022-08-21T07:55:22.711Z,225.00
2022-08-21T07:56:21.790Z,230.62
2022-08-21T07:57:21.726Z,230.62
2022-08-21T07:58:21.646Z,230.62
2022-08-21T07:59:21.644Z,230.62
2022-08-21T08:00:21.738Z,230.62
2022-08-21T08:01:21.678Z,236.25
2022-08-21T08:02:21.598Z,236.25
2022-08-21T08:03:28.851Z,236.25
2022-08-21T08:04:26.374Z,236.25
2022-08-21T08:05:21.626Z,236.25
2022-08-21T08:06:21.598Z,236.25
2022-08-21T08:07:21.590Z,236.25
2022-08-21T08:08:21.534Z,236.25
2022-08-21T08:09:21.568Z,236.25
2022-08-21T08:10:21.604Z,241.88
2022-08-21T08:11:21.506Z,241.88
2022-08-21T08:12:21.510Z,241.88
2022-08-21T08:13:21.487Z,241.88
2022-08-21T08:14:21.468Z,241.88
2022-08-21T08:15:22.479Z,241.88
2022-08-21T08:16:21.458Z,241.88
2022-08-21T08:17:21.566Z,241.88
2022-08-21T08:18:21.433Z,241.88
2022-08-21T08:19:21.431Z,241.88
2022-08-21T08:20:21.399Z,236.25
2022-08-21T08:21:21.401Z,236.25
2022-08-21T08:22:21.369Z,236.25
2022-08-21T08:23:21.381Z,236.25
2022-08-21T08:24:21.357Z,236.25
2022-08-21T08:25:21.381Z,236.25
2022-08-21T08:26:21.364Z,236.25
2022-08-21T08:27:21.321Z,236.25
2022-08-21T08:28:21.330Z,236.25
2022-08-21T08:29:21.293Z,236.25
2022-08-21T08:30:21.310Z,236.25
2022-08-21T08:31:21.263Z,236.25
2022-08-21T08:32:21.298Z,236.25
2022-08-21T08:33:21.244Z,236.25
2022-08-21T08:34:25.153Z,236.25
2022-08-21T08:35:24.347Z,236.25
2022-08-21T08:36:21.237Z,236.25
2022-08-21T08:37:21.222Z,236.25
2022-08-21T08:38:24.385Z,236.25
2022-08-21T08:39:26.983Z,236.25
2022-08-21T08:40:22.197Z,236.25
2022-08-21T08:41:21.156Z,236.25
2022-08-21T08:42:32.179Z,230.62
2022-08-21T08:43:22.176Z,230.62
2022-08-21T08:44:21.127Z,230.62
2022-08-21T08:45:21.107Z,230.62
2022-08-21T08:46:21.098Z,230.62
2022-08-21T08:47:21.125Z,230.62
2022-08-21T08:48:21.156Z,236.25
2022-08-21T08:49:21.173Z,236.25
2022-08-21T08:50:21.152Z,241.88
2022-08-21T08:51:21.048Z,241.88
2022-08-21T08:52:21.046Z,241.88
2022-08-21T08:53:21.009Z,241.88
2022-08-21T08:54:21.019Z,241.88
2022-08-21T08:55:25.360Z,241.88
2022-08-21T08:56:22.001Z,241.88
2022-08-21T08:57:20.970Z,241.88
2022-08-21T08:58:20.973Z,247.50
2022-08-21T08:59:20.952Z,253.12
2022-08-21T09:00:20.942Z,253.12
2022-08-21T09:01:21.019Z,253.12
2022-08-21T09:02:20.945Z,247.50
2022-08-21T09:03:20.913Z,196.88
2022-08-21T09:04:20.932Z,230.62
2022-08-21T09:05:20.872Z,247.50
2022-08-21T09:06:20.872Z,196.88
2022-08-21T09:07:20.929Z,247.50
2022-08-21T09:08:20.853Z,247.50
2022-08-21T09:09:20.846Z,247.50
2022-08-21T09:10:20.816Z,129.38
2022-08-21T09:11:20.794Z,129.38
2022-08-21T09:12:20.797Z,129.38
2022-08-21T09:13:20.816Z,129.38
2022-08-21T09:14:20.776Z,129.38
2022-08-21T09:15:20.758Z,135.00
2022-08-21T09:16:20.746Z,135.00
2022-08-21T09:17:20.746Z,140.62
2022-08-21T09:18:20.747Z,270.00
2022-08-21T09:19:24.985Z,253.12
2022-08-21T09:20:20.713Z,163.12
2022-08-21T09:21:20.686Z,151.88
2022-08-21T09:22:20.697Z,151.88
2022-08-21T09:23:20.705Z,151.88
2022-08-21T09:24:20.687Z,163.12
2022-08-21T09:25:20.755Z,174.38
2022-08-21T09:26:20.642Z,292.50
2022-08-21T09:27:20.622Z,298.12
2022-08-21T09:28:20.643Z,303.75
2022-08-21T09:29:20.611Z,303.75
2022-08-21T09:30:20.652Z,241.88
2022-08-21T09:31:20.590Z,303.75
2022-08-21T09:32:20.562Z,298.12
2022-08-21T09:33:20.565Z,309.38
2022-08-21T09:34:20.566Z,309.38
2022-08-21T09:35:20.531Z,303.75
2022-08-21T09:36:20.591Z,303.75
2022-08-21T09:37:20.503Z,303.75
2022-08-21T09:38:20.502Z,253.12
2022-08-21T09:39:20.499Z,298.12
2022-08-21T09:40:20.539Z,236.25
2022-08-21T09:41:20.467Z,185.62
2022-08-21T09:42:20.466Z,168.75
2022-08-21T09:43:20.453Z,168.75
2022-08-21T09:44:20.424Z,157.50
2022-08-21T09:45:20.434Z,157.50
2022-08-21T09:46:20.417Z,163.12
2022-08-21T09:47:23.801Z,151.88
2022-08-21T09:48:21.395Z,146.25
2022-08-21T09:49:20.385Z,140.62
2022-08-21T09:50:20.365Z,140.62
2022-08-21T09:51:20.366Z,146.25
2022-08-21T09:52:20.355Z,146.25
2022-08-21T09:53:20.379Z,151.88
2022-08-21T09:54:20.324Z,151.88
2022-08-21T09:55:20.330Z,151.88
2022-08-21T09:56:21.540Z,157.50
2022-08-21T09:57:20.316Z,157.50
2022-08-21T09:58:20.283Z,151.88
2022-08-21T09:59:20.328Z,151.88
2022-08-21T10:00:20.251Z,151.88
2022-08-21T10:01:20.328Z,275.62
2022-08-21T10:02:20.240Z,281.25
2022-08-21T10:03:20.300Z,275.62
2022-08-21T10:04:20.204Z,275.62
2022-08-21T10:05:20.220Z,275.62
2022-08-21T10:06:20.201Z,174.38
2022-08-21T10:07:20.183Z,230.62
2022-08-21T10:08:20.196Z,151.88
2022-08-21T10:09:21.694Z,163.12
2022-08-21T10:10:20.143Z,275.62
2022-08-21T10:11:20.144Z,275.62
2022-08-21T10:12:20.161Z,270.00
2022-08-21T10:13:20.112Z,163.12
2022-08-21T10:14:20.102Z,241.88
2022-08-21T10:15:20.111Z,185.62
2022-08-21T10:16:20.144Z,270.00
2022-08-21T10:17:20.061Z,151.88
2022-08-21T10:18:20.063Z,146.25
2022-08-21T10:19:20.135Z,140.62
2022-08-21T10:20:20.029Z,253.12
2022-08-21T10:21:20.006Z,174.38
2022-08-21T10:22:20.186Z,258.75
2022-08-21T10:23:20.006Z,241.88
2022-08-21T10:24:30.967Z,157.50
2022-08-21T10:25:20.999Z,140.62
2022-08-21T10:26:19.986Z,135.00
2022-08-21T10:27:19.980Z,135.00
2022-08-21T10:28:19.970Z,135.00
2022-08-21T10:29:19.940Z,135.00
2022-08-21T10:30:19.921Z,135.00
2022-08-21T10:31:19.924Z,140.62
2022-08-21T10:32:26.551Z,140.62
2022-08-21T10:33:20.976Z,140.62
2022-08-21T10:34:19.889Z,146.25
2022-08-21T10:35:19.860Z,264.38
2022-08-21T10:36:19.854Z,241.88
2022-08-21T10:37:19.863Z,253.12
2022-08-21T10:38:39.390Z,174.38
2022-08-21T10:39:35.106Z,253.12
2022-08-21T10:40:20.875Z,258.75
2022-08-21T10:41:19.814Z,258.75
2022-08-21T10:42:19.811Z,258.75
2022-08-21T10:43:19.817Z,258.75
2022-08-21T10:44:19.772Z,253.12
2022-08-21T10:45:19.773Z,253.12
2022-08-21T10:46:19.753Z,253.12
2022-08-21T10:47:19.723Z,253.12
2022-08-21T10:48:19.725Z,253.12
2022-08-21T10:49:19.743Z,253.12
2022-08-21T10:50:19.702Z,253.12
2022-08-21T10:51:19.715Z,253.12
2022-08-21T10:52:20.670Z,253.12
2022-08-21T10:53:19.674Z,247.50
2022-08-21T10:54:23.332Z,247.50
2022-08-21T10:55:19.704Z,236.25
2022-08-21T10:56:19.636Z,247.50
2022-08-21T10:57:24.052Z,191.25
2022-08-21T10:58:20.657Z,129.38
2022-08-21T10:59:19.603Z,135.00
2022-08-21T11:00:19.599Z,151.88
2022-08-21T11:01:19.661Z,129.38
2022-08-21T11:02:19.548Z,123.75
2022-08-21T11:03:19.548Z,123.75
2022-08-21T11:04:19.536Z,123.75
2022-08-21T11:05:19.519Z,123.75
2022-08-21T11:06:19.499Z,129.38
2022-08-21T11:07:19.672Z,168.75
2022-08-21T11:08:19.511Z,247.50
2022-08-21T11:09:19.470Z,247.50
2022-08-21T11:10:19.482Z,247.50
2022-08-21T11:11:19.450Z,247.50
2022-08-21T11:12:19.432Z,241.88
2022-08-21T11:13:19.456Z,241.88
2022-08-21T11:14:19.423Z,241.88
2022-08-21T11:15:29.216Z,241.88
2022-08-21T11:16:20.391Z,247.50
2022-08-21T11:17:21.858Z,247.50
2022-08-21T11:18:19.364Z,241.88
2022-08-21T11:19:19.358Z,241.88
2022-08-21T11:20:19.354Z,241.88
2022-08-21T11:21:19.333Z,241.88
2022-08-21T11:22:19.316Z,241.88
2022-08-21T11:23:19.335Z,236.25
2022-08-21T11:24:19.332Z,236.25
2022-08-21T11:25:20.005Z,236.25
2022-08-21T11:26:19.282Z,236.25
2022-08-21T11:27:19.287Z,230.62
2022-08-21T11:28:19.281Z,230.62
2022-08-21T11:29:19.245Z,219.38
2022-08-21T11:30:19.246Z,230.62
2022-08-21T11:31:19.237Z,225.00
2022-08-21T11:32:19.222Z,225.00
2022-08-21T11:33:19.209Z,225.00
2022-08-21T11:34:19.279Z,230.62
2022-08-21T11:35:19.186Z,230.62
2022-08-21T11:36:19.158Z,230.62
2022-08-21T11:37:19.145Z,230.62
2022-08-21T11:38:19.158Z,225.00
2022-08-21T11:39:19.125Z,225.00
2022-08-21T11:40:19.192Z,225.00
2022-08-21T11:41:19.886Z,225.00
2022-08-21T11:42:20.043Z,225.00
2022-08-21T11:43:20.025Z,225.00
2022-08-21T11:44:19.070Z,225.00
2022-08-21T11:45:19.058Z,225.00
2022-08-21T11:46:19.066Z,225.00
2022-08-21T11:47:19.042Z,225.00
2022-08-21T11:48:19.019Z,225.00
2022-08-21T11:49:18.998Z,219.38
2022-08-21T11:50:34.225Z,219.38
2022-08-21T11:51:20.004Z,219.38
2022-08-21T11:52:18.966Z,219.38
2022-08-21T11:53:18.970Z,219.38
2022-08-21T11:54:19.000Z,219.38
2022-08-21T11:55:23.657Z,213.75
2022-08-21T11:56:19.952Z,213.75
2022-08-21T11:57:18.973Z,219.38
2022-08-21T11:58:18.976Z,219.38
2022-08-21T11:59:18.883Z,219.38
2022-08-21T12:00:18.875Z,219.38
2022-08-21T12:01:18.933Z,213.75
2022-08-21T12:02:18.883Z,213.75
2022-08-21T12:03:18.856Z,213.75
2022-08-21T12:04:18.862Z,213.75
2022-08-21T12:05:18.807Z,213.75
2022-08-21T12:06:24.127Z,213.75
2022-08-21T12:07:19.788Z,219.38
2022-08-21T12:08:18.786Z,219.38
2022-08-21T12:09:18.798Z,213.75
2022-08-21T12:10:18.758Z,213.75
2022-08-21T12:11:18.747Z,213.75
2022-08-21T12:12:18.754Z,213.75
2022-08-21T12:13:18.730Z,213.75
2022-08-21T12:14:18.710Z,213.75
2022-08-21T12:15:18.786Z,213.75
2022-08-21T12:16:18.690Z,219.38
2022-08-21T12:17:20.348Z,219.38
2022-08-21T12:18:18.671Z,219.38
2022-08-21T12:19:18.642Z,225.00
2022-08-21T12:20:18.637Z,230.62
2022-08-21T12:21:18.663Z,236.25
2022-08-21T12:22:18.615Z,247.50
2022-08-21T12:23:18.621Z,253.12
2022-08-21T12:24:18.605Z,253.12
2022-08-21T12:25:21.500Z,258.75
2022-08-21T12:26:18.576Z,264.38
2022-08-21T12:27:18.604Z,264.38
2022-08-21T12:28:18.555Z,270.00
2022-08-21T12:29:18.569Z,264.38
2022-08-21T12:30:18.524Z,264.38
2022-08-21T12:31:18.527Z,264.38
2022-08-21T12:32:18.508Z,286.88
2022-08-21T12:33:18.637Z,292.50
2022-08-21T12:34:18.533Z,292.50
2022-08-21T12:35:24.562Z,292.50
2022-08-21T12:36:19.474Z,298.12
2022-08-21T12:37:18.474Z,298.12
2022-08-21T12:38:18.440Z,303.75
2022-08-21T12:39:18.513Z,309.38
2022-08-21T12:40:18.541Z,309.38
2022-08-21T12:41:18.488Z,309.38
2022-08-21T12:42:18.396Z,309.38
2022-08-21T12:43:18.397Z,315.00
2022-08-21T12:44:18.394Z,315.00
2022-08-21T12:45:18.392Z,320.62
2022-08-21T12:46:18.341Z,326.25
2022-08-21T12:47:18.346Z,331.88